Decoded Metar for KLWM (LAWRENCE in MA, USA) (IATA:LWM) | Meteo·Mobile Aviation Weather
aviador You're here:

KLWM Decoded Metar

LAWRENCE in MA, USA
Report Time2018-08-19 04:17:00
UTC Time2018-08-19 04:28:17
Flight Rules vfr VFR
Wind040° at 07 kt
W.Decomp.*RWY 05: 7.0 kt HW 0.6 kt RCW
RWY 14: 0.6 kt HW 7 kt LCW
W.Rank040° ranks 19
Current wind is below 040° avg. (7.2)
Visibility9999 m
Phenomena:N/A
Clouds:Scattered 012 Hf
Scattered 017 Hf
Overcast 049 Hf
Expected CloudBase > 1,600 ft AGL from Temp-Dew spread
Ceiling4,900 ft
Temp21°C (ISA +6)
Dew Point17°C (78% RH)
AAT20.9°C
QNH1014 hPa
Density Alt1,142 ft
Elevation177 ft
Report Wrong Elevation
Raw Report
KLWM 190417Z AUTO 04007KT 10SM SCT012 SCT017 OVC049 21/17 A2994
RMK AO2 T02060172=

Extra information for KLWM:More info

Metar Taf Metar & Taf Last 4 Metars F.Rules Stats Wind Profile Meteogram Temp Stats Airport Information Weather charts Add Link Nearby VenuesMetar ALERT Operation Metar Decoded Social comments

AIRNAV info for KLWM